Amado, Arizona
Current Conditions -  °F | °C
As of 9:54 AM on Tuesday 27 Jan 2015 (Local Time) from KOLS Reporting Station
Clear Clear  
Wind Chill: 14°   Ceiling: Unl
Heat Index: 14°   Visibility: 10mi
Dew Point:   Wind: 0mph
Humidity: 72%   Direction: NA
Pressure: 30.28"   Gusts: NA
Location:  31.71°N, 111.07°W
Report Text: KOLS 271654Z AUTO 00000KT 10SM CLR 14/09 A3028 RMK AO2 SLP218 T01440094
Loading
Personal Weather Stations






























Interactive Weather Map New forecast layout! Learn more

10-Day Weather Forecast

Advertisements
Track Severe Weather on mobile